Map

Track Data

SID SEASON NUMBER BASIN SUBBASIN NAME ISO_TIME NATURE LAT LON WMO_WIND WMO_PRES WMO_AGENCY TRACK_TYPE DIST2LAND LANDFALL IFLAG USA_AGENCY USA_ATCF_ID USA_LAT USA_LON USA_RECORD USA_STATUS USA_WIND USA_PRES USA_SSHS USA_R34_NE USA_R34_SE USA_R34_SW USA_R34_NW USA_R50_NE USA_R50_SE USA_R50_SW USA_R50_NW USA_R64_NE USA_R64_SE USA_R64_SW USA_R64_NW USA_POCI USA_ROCI USA_RMW USA_EYE TOKYO_LAT TOKYO_LON TOKYO_GRADE TOKYO_WIND TOKYO_PRES TOKYO_R50_DIR TOKYO_R50_LONG TOKYO_R50_SHORT TOKYO_R30_DIR TOKYO_R30_LONG TOKYO_R30_SHORT TOKYO_LAND CMA_LAT CMA_LON CMA_CAT CMA_WIND CMA_PRES HKO_LAT HKO_LON HKO_CAT HKO_WIND HKO_PRES NEWDELHI_LAT NEWDELHI_LON NEWDELHI_GRADE NEWDELHI_WIND NEWDELHI_PRES NEWDELHI_CI NEWDELHI_DP NEWDELHI_POCI REUNION_LAT REUNION_LON REUNION_TYPE REUNION_WIND REUNION_PRES REUNION_TNUM REUNION_CI REUNION_RMW REUNION_R34_NE REUNION_R34_SE REUNION_R34_SW REUNION_R34_NW REUNION_R50_NE REUNION_R50_SE REUNION_R50_SW REUNION_R50_NW REUNION_R64_NE REUNION_R64_SE REUNION_R64_SW REUNION_R64_NW BOM_LAT BOM_LON BOM_TYPE BOM_WIND BOM_PRES BOM_TNUM BOM_CI BOM_RMW BOM_R34_NE BOM_R34_SE BOM_R34_SW BOM_R34_NW BOM_R50_NE BOM_R50_SE BOM_R50_SW BOM_R50_NW BOM_R64_NE BOM_R64_SE BOM_R64_SW BOM_R64_NW BOM_ROCI BOM_POCI BOM_EYE BOM_POS_METHOD BOM_PRES_METHOD NADI_LAT NADI_LON NADI_CAT NADI_WIND NADI_PRES WELLINGTON_LAT WELLINGTON_LON WELLINGTON_WIND WELLINGTON_PRES DS824_LAT DS824_LON DS824_STAGE DS824_WIND DS824_PRES TD9636_LAT TD9636_LON TD9636_STAGE TD9636_WIND TD9636_PRES TD9635_LAT TD9635_LON TD9635_WIND TD9635_PRES TD9635_ROCI NEUMANN_LAT NEUMANN_LON NEUMANN_CLASS NEUMANN_WIND NEUMANN_PRES MLC_LAT MLC_LON MLC_CLASS MLC_WIND MLC_PRES USA_GUST BOM_GUST BOM_GUST_PER REUNION_GUST REUNION_GUST_PER USA_SEAHGT USA_SEARAD_NE USA_SEARAD_SE USA_SEARAD_SW USA_SEARAD_NW STORM_SPEED STORM_DIR
1940294N12281 1940 74 NA CS NOT_NAMED 1940-10-20 00:00:00 TS 12.0000 -79.1000 30 hurdat_atl main 280 280 O_____________ hurdat_atl AL081940 12.0000 -79.1000 TD 30 -1 2 270
1940294N12281 1940 74 NA CS NOT_NAMED 1940-10-20 03:00:00 TS 12.0000 -79.2000 main 280 280 P_____________ AL081940 12.0000 -79.2000 TD 30 -1 2 270
1940294N12281 1940 74 NA CS NOT_NAMED 1940-10-20 06:00:00 TS 12.0000 -79.3000 30 hurdat_atl main 280 280 O_____________ hurdat_atl AL081940 12.0000 -79.3000 TD 30 -1 2 270
1940294N12281 1940 74 NA CS NOT_NAMED 1940-10-20 09:00:00 TS 12.0000 -79.4000 main 280 280 P_____________ AL081940 12.0000 -79.4000 TD 30 -1 2 270
1940294N12281 1940 74 NA CS NOT_NAMED 1940-10-20 12:00:00 TS 12.0000 -79.5000 30 hurdat_atl main 280 280 O_____________ hurdat_atl AL081940 12.0000 -79.5000 TD 30 -1 2 268
1940294N12281 1940 74 NA CS NOT_NAMED 1940-10-20 15:00:00 TS 11.9925 -79.6000 main 280 280 P_____________ AL081940 11.9925 -79.6000 TD 32 -1 2 270
1940294N12281 1940 74 NA CS NOT_NAMED 1940-10-20 18:00:00 TS 12.0000 -79.7000 35 hurdat_atl main 280 280 O_____________ hurdat_atl AL081940 12.0000 -79.7000 TS 35 0 2 287
1940294N12281 1940 74 NA CS NOT_NAMED 1940-10-20 21:00:00 TS 12.0500 -79.8000 main 280 280 P_____________ AL081940 12.0500 -79.8000 TS 37 0 2 297
1940294N12281 1940 74 NA CS NOT_NAMED 1940-10-21 00:00:00 TS 12.1000 -79.9000 40 hurdat_atl main 292 292 O_____________ hurdat_atl AL081940 12.1000 -79.9000 TS 40 0 2 285
1940294N12281 1940 74 NA CS NOT_NAMED 1940-10-21 03:00:00 TS 12.1000 -79.9925 main 293 293 P_____________ AL081940 12.1000 -79.9925 TS 42 0 2 270
1940294N12281 1940 74 NA CS NOT_NAMED 1940-10-21 06:00:00 TS 12.1000 -80.1000 45 hurdat_atl main 294 294 O_____________ hurdat_atl AL081940 12.1000 -80.1000 TS 45 0 3 278
1940294N12281 1940 74 NA CS NOT_NAMED 1940-10-21 09:00:00 TS 12.1350 -80.2500 main 296 296 P_____________ AL081940 12.1350 -80.2500 TS 47 0 3 289
1940294N12281 1940 74 NA CS NOT_NAMED 1940-10-21 12:00:00 TS 12.2000 -80.4000 50 hurdat_atl main 311 311 O_____________ hurdat_atl AL081940 12.2000 -80.4000 TS 50 0 3 302
1940294N12281 1940 74 NA CS NOT_NAMED 1940-10-21 15:00:00 TS 12.2850 -80.5000 main 325 315 P_____________ AL081940 12.2850 -80.5000 TS 52 0 3 316
1940294N12281 1940 74 NA CS NOT_NAMED 1940-10-21 18:00:00 TS 12.4000 -80.6000 55 993 hurdat_atl main 315 304 O_____________ hurdat_atl AL081940 12.4000 -80.6000 TS 55 993 0 3 316
1940294N12281 1940 74 NA CS NOT_NAMED 1940-10-21 21:00:00 TS 12.5350 -80.7425 main 304 282 P_____________ AL081940 12.5350 -80.7425 TS 57 0 4 316
1940294N12281 1940 74 NA CS NOT_NAMED 1940-10-22 00:00:00 TS 12.7000 -80.9000 60 hurdat_atl main 282 271 O_____________ hurdat_atl AL081940 12.7000 -80.9000 TS 60 0 5 321
1940294N12281 1940 74 NA CS NOT_NAMED 1940-10-22 03:00:00 TS 12.9000 -81.0500 main 271 249 P_____________ AL081940 12.9000 -81.0500 TS 62 0 5 324
1940294N12281 1940 74 NA CS NOT_NAMED 1940-10-22 06:00:00 TS 13.1000 -81.2000 65 hurdat_atl main 249 238 O_____________ hurdat_atl AL081940 13.1000 -81.2000 HU 65 1 5 321
1940294N12281 1940 74 NA CS NOT_NAMED 1940-10-22 09:00:00 TS 13.2575 -81.3500 main 224 209 P_____________ AL081940 13.2575 -81.3500 HU 67 1 4 316
1940294N12281 1940 74 NA CS NOT_NAMED 1940-10-22 12:00:00 TS 13.4000 -81.5000 70 hurdat_atl main 209 194 O_____________ hurdat_atl AL081940 13.4000 -81.5000 HU 70 1 4 315
1940294N12281 1940 74 NA CS NOT_NAMED 1940-10-22 15:00:00 TS 13.5500 -81.6500 main 185 165 P_____________ AL081940 13.5500 -81.6500 HU 70 1 4 316
1940294N12281 1940 74 NA CS NOT_NAMED 1940-10-22 18:00:00 TS 13.7000 -81.8000 70 hurdat_atl main 165 147 O_____________ hurdat_atl AL081940 13.7000 -81.8000 HU 70 1 4 317
1940294N12281 1940 74 NA CS NOT_NAMED 1940-10-22 21:00:00 TS 13.8650 -81.9500 main 147 123 P_____________ AL081940 13.8650 -81.9500 HU 70 1 4 316
1940294N12281 1940 74 NA CS NOT_NAMED 1940-10-23 00:00:00 TS 14.0000 -82.1000 70 hurdat_atl main 123 110 O_____________ hurdat_atl AL081940 14.0000 -82.1000 HU 70 1 3 305
1940294N12281 1940 74 NA CS NOT_NAMED 1940-10-23 03:00:00 TS 14.0650 -82.2425 main 110 89 P_____________ AL081940 14.0650 -82.2425 HU 70 1 3 289
1940294N12281 1940 74 NA CS NOT_NAMED 1940-10-23 06:00:00 TS 14.1000 -82.4000 70 hurdat_atl main 89 65 O_____________ hurdat_atl AL081940 14.1000 -82.4000 HU 70 1 3 288
1940294N12281 1940 74 NA CS NOT_NAMED 1940-10-23 09:00:00 TS 14.1725 -82.5849 main 65 44 P_____________ AL081940 14.1725 -82.5849 HU 70 1 4 284
1940294N12281 1940 74 NA CS NOT_NAMED 1940-10-23 12:00:00 TS 14.2000 -82.8000 70 hurdat_atl main 44 24 O_____________ hurdat_atl AL081940 14.2000 -82.8000 HU 70 1 4 264
1940294N12281 1940 74 NA CS NOT_NAMED 1940-10-23 15:00:00 TS 14.1300 -83.0350 main 31 10 P_____________ AL081940 14.1300 -83.0350 HU 70 1 5 248
1940294N12281 1940 74 NA CS NOT_NAMED 1940-10-23 18:00:00 TS 14.0000 -83.3000 70 hurdat_atl main 10 0 O_____________ hurdat_atl AL081940 14.0000 -83.3000 HU 70 1 6 244
1940294N12281 1940 74 NA NA NOT_NAMED 1940-10-23 21:00:00 TS 13.8650 -83.5850 main 0 0 P_____________ AL081940 13.8650 -83.5850 HU 60 0 7 243
1940294N12281 1940 74 NA NA NOT_NAMED 1940-10-24 00:00:00 TS 13.7000 -83.9000 50 hurdat_atl main 0 0 O_____________ hurdat_atl AL081940 13.7000 -83.9000 TS 50 0 7 241
1940294N12281 1940 74 NA NA NOT_NAMED 1940-10-24 03:00:00 TS 13.5150 -84.2425 main 0 0 P_____________ AL081940 13.5150 -84.2425 TS 42 0 8 240
1940294N12281 1940 74 NA NA NOT_NAMED 1940-10-24 06:00:00 TS 13.3000 -84.6000 35 hurdat_atl main 0 0 O_____________ hurdat_atl AL081940 13.3000 -84.6000 TS 35 0 8 237
1940294N12281 1940 74 NA NA NOT_NAMED 1940-10-24 09:00:00 TS 13.0576 -84.9526 main 0 0 P_____________ AL081940 13.0576 -84.9526 TS 30 -1 8 234
1940294N12281 1940 74 NA NA NOT_NAMED 1940-10-24 12:00:00 TS 12.8000 -85.3000 25 hurdat_atl main 0 O_____________ hurdat_atl AL081940 12.8000 -85.3000 TD 25 -1 9 233

About IBTrACS Database

This database is a web-friendly format of International Best Track Archive for Climate Stewardship (IBTrACS), a global best track data archive curated by NOAA dating back to 1842.

Updated: 2021-10-19